Capitol Logistics 407


KRFD
Chicago/Rockford International Airport
Rockford, Illinois, US
KBNA
Nashville International Airport
Nashville, Tennessee, US

Activity Log

Date Flight Route Aircraft Duration
07/03/2020 CPX407 JOT GUIDO J73 PXV GUMMA RYYMN2 B738 1h 14m
11/26/2019 CPX407 JOT GUIDO J73 PXV GUMMA RYYMN2 B738 1h 21m
11/12/2019 CPX407 JOT GUIDO J73 PXV GUMMA RYYMN2 B738 1h 17m
10/31/2019 CPX407 N0458F410 RFD EON BVT J89 KURTZ LVT PASLY4 B752 1h 27m
09/18/2019 CPX407 N0450F410 RFD EON BVT J89 KURTZ LVT PASLY4 B752 1h 38m
03/30/2019 CPX407 JOT GUIDO J73 PXV GUMMA RYYMN2 B752 1h 19m
03/25/2019 CPX407 $$ B752 1h 25m

Route Details

Aircraft Information
Primary: Boeing 757-200SF
Backup: Boeing 737-800BCF
Route Data
Distance: 381nm
Sched. Duration: 1h 10m
Avg. Duration: 1h 23m (+14m)
Times Flown: 7
Recm'd Route: JOT GUIDO J73 PXV GUMMA RYYMN2
Planned Altitude: 35,000ft
Origin Wx: KRFD 291201Z 02014G24KT 10SM BKN016 OVC240 04/00 A2992 RMK AO2 T00440000
Dest. Wx: KBNA 291153Z 19004KT 7SM OVC026 19/18 A2955 RMK AO2 SLP001 60000 70076 T01940178 10200 20183 53010
Notes:

Financial History
Total Freight: 272,735lbs
Average Load: 38,962lbs/flt
Fuel Used: 76,342lbs
Avg. Fuel Used: 10,906lbs/flt
Fuel Expense: $55,082
Avg. Fuel Expense: $7,869
Avg. Fuel Cost: $0.72/lbs
Total Gross Income: $356,912
Pilot Pay: $863
Total Expenses: $38,910
Total Revenue: $261,372
Average Revenue: $50,987.41